createdAt,value
2018-11-13T00:02:04.070Z,9.40
2018-11-13T00:04:32.603Z,9.33
2018-11-13T00:07:01.082Z,8.17
2018-11-13T00:09:29.614Z,8.43
2018-11-13T00:11:58.150Z,8.60
2018-11-13T00:14:26.532Z,8.97
2018-11-13T00:16:55.055Z,9.10
2018-11-13T00:19:23.544Z,8.30
2018-11-13T00:21:51.996Z,8.23
2018-11-13T00:24:20.536Z,8.30
2018-11-13T00:26:49.115Z,8.30
2018-11-13T00:29:17.651Z,8.37
2018-11-13T00:31:46.161Z,8.17
2018-11-13T00:34:14.625Z,8.67
2018-11-13T00:36:42.988Z,8.83
2018-11-13T00:39:13.133Z,8.67
2018-11-13T00:41:42.066Z,7.93
2018-11-13T00:44:11.107Z,8.57
2018-11-13T00:46:40.304Z,8.00
2018-11-13T00:49:08.837Z,8.83
2018-11-13T00:51:38.292Z,8.30
2018-11-13T00:54:06.761Z,8.90
2018-11-13T00:56:35.205Z,8.47
2018-11-13T00:59:03.859Z,9.20
2018-11-13T01:01:32.417Z,9.27
2018-11-13T01:04:00.883Z,9.17
2018-11-13T01:06:29.332Z,9.17
2018-11-13T01:08:58.445Z,9.07
2018-11-13T01:11:26.847Z,10.07
2018-11-13T01:13:55.251Z,10.80
2018-11-13T01:16:23.714Z,10.10
2018-11-13T01:18:52.305Z,12.23
2018-11-13T01:21:20.950Z,11.90
2018-11-13T01:23:49.648Z,11.43
2018-11-13T01:26:18.016Z,11.47
2018-11-13T01:28:46.533Z,12.43
2018-11-13T01:31:15.026Z,13.13
2018-11-13T01:33:43.509Z,11.67
2018-11-13T01:36:12.201Z,13.70
2018-11-13T01:38:40.776Z,12.90
2018-11-13T01:41:09.198Z,11.87
2018-11-13T01:43:37.679Z,11.57
2018-11-13T01:46:06.307Z,11.20
2018-11-13T01:48:34.955Z,12.70
2018-11-13T01:51:04.025Z,11.80
2018-11-13T01:53:32.527Z,12.50
2018-11-13T01:56:00.997Z,12.57
2018-11-13T01:58:29.445Z,12.77
2018-11-13T02:00:58.157Z,12.17
2018-11-13T02:03:26.960Z,13.73
2018-11-13T02:05:55.416Z,12.57
2018-11-13T02:08:24.269Z,14.00
2018-11-13T02:10:52.999Z,13.00
2018-11-13T02:13:21.694Z,12.57
2018-11-13T02:15:50.424Z,12.13
2018-11-13T02:18:18.870Z,13.63
2018-11-13T02:20:47.550Z,14.23
2018-11-13T02:23:16.224Z,14.83
2018-11-13T02:25:44.889Z,15.13
2018-11-13T02:28:13.404Z,15.23
2018-11-13T02:30:42.074Z,14.87
2018-11-13T02:33:10.538Z,16.00
2018-11-13T02:35:39.001Z,15.07
2018-11-13T02:38:07.461Z,15.97
2018-11-13T02:40:35.962Z,16.07
2018-11-13T02:43:04.484Z,15.37
2018-11-13T02:45:33.145Z,16.10
2018-11-13T02:48:01.633Z,16.23
2018-11-13T02:50:30.270Z,16.33
2018-11-13T02:52:58.972Z,17.87
2018-11-13T02:55:27.542Z,16.57
2018-11-13T02:57:55.955Z,16.17
2018-11-13T03:00:24.394Z,16.63
2018-11-13T03:02:52.777Z,15.77
2018-11-13T03:05:22.234Z,17.67
2018-11-13T03:07:51.286Z,16.27
2018-11-13T03:10:20.644Z,15.83
2018-11-13T03:12:49.435Z,16.60
2018-11-13T03:15:19.167Z,16.60
2018-11-13T03:17:47.906Z,17.63
2018-11-13T03:20:17.444Z,18.10
2018-11-13T03:22:46.184Z,17.17
2018-11-13T03:25:16.718Z,16.43
2018-11-13T03:27:45.132Z,16.73
2018-11-13T03:30:17.110Z,16.47
2018-11-13T03:32:45.659Z,16.40
2018-11-13T03:35:14.393Z,16.50
2018-11-13T03:37:42.999Z,17.00
2018-11-13T03:40:12.604Z,17.17
2018-11-13T03:42:41.944Z,17.10
2018-11-13T03:45:11.515Z,15.93
2018-11-13T03:47:40.218Z,17.63
2018-11-13T03:50:11.066Z,20.43
2018-11-13T03:52:39.526Z,18.23
2018-11-13T03:55:08.821Z,19.00
2018-11-13T03:57:37.496Z,18.37
2018-11-13T04:00:08.113Z,20.23
2018-11-13T04:02:36.752Z,17.87
2018-11-13T04:05:06.850Z,19.00
2018-11-13T04:07:39.625Z,17.47
2018-11-13T04:10:08.820Z,17.73
2018-11-13T04:12:37.490Z,18.70
2018-11-13T04:15:06.561Z,18.00
2018-11-13T04:17:35.022Z,19.53
2018-11-13T04:20:03.666Z,18.30
2018-11-13T04:22:32.117Z,18.33
2018-11-13T04:25:00.626Z,18.03
2018-11-13T04:27:29.207Z,17.50
2018-11-13T04:29:57.813Z,17.80
2018-11-13T04:32:26.208Z,17.47
2018-11-13T04:34:54.750Z,17.60
2018-11-13T04:37:23.365Z,17.13
2018-11-13T04:39:51.804Z,18.43
2018-11-13T04:42:20.421Z,16.70
2018-11-13T04:44:49.069Z,17.07
2018-11-13T04:47:17.448Z,16.77
2018-11-13T04:49:45.919Z,16.37
2018-11-13T04:52:14.336Z,15.53
2018-11-13T04:54:42.748Z,17.20
2018-11-13T04:57:11.201Z,16.43
2018-11-13T04:59:39.621Z,16.30
2018-11-13T05:02:08.761Z,15.40
2018-11-13T05:04:37.205Z,16.80
2018-11-13T05:07:06.652Z,16.17
2018-11-13T05:09:35.069Z,16.43
2018-11-13T05:12:03.800Z,17.20
2018-11-13T05:14:32.272Z,16.60
2018-11-13T05:17:00.834Z,15.53
2018-11-13T05:19:29.688Z,16.10
2018-11-13T05:21:58.736Z,15.83
2018-11-13T05:24:27.212Z,16.17
2018-11-13T05:26:56.094Z,15.30
2018-11-13T05:29:24.500Z,15.87
2018-11-13T05:31:52.894Z,16.27
2018-11-13T05:34:21.680Z,14.60
2018-11-13T05:36:50.110Z,14.70
2018-11-13T05:39:18.740Z,13.87
2018-11-13T05:41:47.307Z,14.27
2018-11-13T05:44:16.147Z,14.57
2018-11-13T05:46:44.613Z,15.17
2018-11-13T05:49:13.009Z,14.27
2018-11-13T05:51:41.874Z,14.10
2018-11-13T05:54:10.292Z,13.60
2018-11-13T05:57:01.957Z,14.37
2018-11-13T05:59:34.606Z,14.23
2018-11-13T06:02:07.207Z,14.30
2018-11-13T06:04:36.536Z,15.37
2018-11-13T06:07:05.613Z,14.90
2018-11-13T06:09:34.020Z,15.23
2018-11-13T06:12:02.682Z,14.80
2018-11-13T06:14:31.049Z,15.03
2018-11-13T06:16:59.736Z,15.10
2018-11-13T06:19:28.435Z,15.40
2018-11-13T06:21:56.935Z,14.70
2018-11-13T06:24:25.313Z,16.47
2018-11-13T06:26:53.680Z,15.90
2018-11-13T06:29:22.169Z,15.90
2018-11-13T06:31:50.657Z,16.03
2018-11-13T06:34:19.298Z,14.93
2018-11-13T06:36:47.747Z,15.07
2018-11-13T06:39:16.436Z,15.20
2018-11-13T06:41:45.145Z,15.13
2018-11-13T06:44:13.565Z,13.47
2018-11-13T06:46:42.310Z,13.83
2018-11-13T06:49:11.093Z,13.83
2018-11-13T06:51:40.174Z,13.40
2018-11-13T06:54:20.139Z,14.87
2018-11-13T06:56:48.613Z,13.80
2018-11-13T06:59:17.126Z,15.03
2018-11-13T07:01:45.747Z,15.20
2018-11-13T07:04:14.124Z,15.43
2018-11-13T07:06:42.502Z,15.93
2018-11-13T07:09:11.135Z,16.37
2018-11-13T07:11:39.613Z,13.57
2018-11-13T07:14:08.369Z,12.70
2018-11-13T07:16:36.816Z,12.43
2018-11-13T07:19:05.870Z,12.87
2018-11-13T07:21:34.517Z,13.27
2018-11-13T07:24:03.006Z,14.80
2018-11-13T07:26:32.058Z,13.23
2018-11-13T07:29:01.638Z,14.77
2018-11-13T07:31:30.201Z,12.43
2018-11-13T07:33:58.745Z,10.40
2018-11-13T07:36:27.291Z,8.73
2018-11-13T07:38:56.869Z,9.23
2018-11-13T07:41:25.853Z,9.03
2018-11-13T07:43:54.216Z,7.33
2018-11-13T07:46:22.782Z,7.97
2018-11-13T07:48:51.236Z,7.30
2018-11-13T07:51:19.929Z,5.73
2018-11-13T07:53:48.781Z,5.27
2018-11-13T07:56:17.408Z,4.13
2018-11-13T07:58:45.796Z,3.77
2018-11-13T08:01:14.280Z,4.23
2018-11-13T08:03:42.652Z,2.83
2018-11-13T08:06:11.283Z,2.07
2018-11-13T08:08:39.692Z,2.07
2018-11-13T08:11:08.125Z,1.67
2018-11-13T08:13:36.675Z,1.73
2018-11-13T08:16:05.095Z,2.13
2018-11-13T08:18:33.561Z,1.73
2018-11-13T08:21:02.038Z,1.40
2018-11-13T08:23:30.493Z,2.43
2018-11-13T08:25:59.616Z,2.00
2018-11-13T08:28:28.629Z,1.30
2018-11-13T08:30:57.785Z,2.43
2018-11-13T08:33:27.012Z,1.40
2018-11-13T08:35:55.510Z,1.70
2018-11-13T08:38:24.088Z,0.90
2018-11-13T08:40:53.130Z,1.20
2018-11-13T08:43:21.630Z,1.33
2018-11-13T08:45:50.070Z,1.30
2018-11-13T08:48:19.148Z,1.30
2018-11-13T08:50:48.034Z,1.30
2018-11-13T08:53:16.549Z,2.27
2018-11-13T08:55:45.030Z,1.53
2018-11-13T08:58:13.802Z,1.67
2018-11-13T09:00:42.385Z,2.20
2018-11-13T09:03:10.890Z,1.33
2018-11-13T09:05:39.350Z,2.00
2018-11-13T09:08:07.753Z,1.77
2018-11-13T09:10:36.486Z,1.70
2018-11-13T09:13:05.683Z,1.50
2018-11-13T09:15:34.143Z,2.37
2018-11-13T09:18:02.670Z,2.07
2018-11-13T09:20:31.113Z,1.53
2018-11-13T09:22:59.604Z,2.00
2018-11-13T09:25:28.326Z,1.40
2018-11-13T09:27:56.905Z,1.97
2018-11-13T09:30:26.138Z,1.30
2018-11-13T09:32:54.362Z,1.43
2018-11-13T09:35:23.066Z,1.43
2018-11-13T09:37:51.809Z,2.07
2018-11-13T09:40:21.030Z,1.73
2018-11-13T09:42:51.281Z,1.90
2018-11-13T09:45:19.845Z,1.37
2018-11-13T09:47:48.428Z,1.57
2018-11-13T09:50:18.093Z,1.60
2018-11-13T09:52:48.257Z,1.30
2018-11-13T09:55:17.939Z,1.10
2018-11-13T09:57:46.649Z,1.10
2018-11-13T10:00:17.491Z,0.90
2018-11-13T10:02:48.976Z,1.17
2018-11-13T10:05:18.027Z,1.97
2018-11-13T10:07:47.000Z,1.03
2018-11-13T10:10:15.430Z,1.70
2018-11-13T10:12:43.773Z,1.93
2018-11-13T10:15:14.927Z,1.20
2018-11-13T10:17:43.811Z,1.23
2018-11-13T10:20:13.516Z,1.20
2018-11-13T10:22:43.157Z,1.20
2018-11-13T10:25:12.318Z,1.20
2018-11-13T10:27:41.951Z,1.97
2018-11-13T10:30:13.086Z,1.20
2018-11-13T10:32:42.196Z,1.57
2018-11-13T10:35:11.961Z,1.90
2018-11-13T10:37:40.839Z,1.47
2018-11-13T10:40:11.772Z,1.27
2018-11-13T10:42:40.518Z,1.90
2018-11-13T10:45:11.946Z,1.40
2018-11-13T10:47:41.025Z,2.63
2018-11-13T10:50:26.111Z,2.20
2018-11-13T10:52:54.830Z,1.73
2018-11-13T10:55:23.570Z,1.80
2018-11-13T10:57:52.042Z,2.30
2018-11-13T11:00:25.877Z,2.17
2018-11-13T11:02:59.989Z,2.40
2018-11-13T11:05:29.038Z,2.47
2018-11-13T11:07:57.910Z,2.13
2018-11-13T11:10:26.728Z,2.10
2018-11-13T11:12:55.893Z,2.10
2018-11-13T11:15:24.480Z,2.47
2018-11-13T11:17:52.956Z,2.73
2018-11-13T11:20:21.654Z,2.30
2018-11-13T11:22:50.289Z,2.70
2018-11-13T11:25:18.741Z,1.87
2018-11-13T11:27:47.210Z,1.90
2018-11-13T11:30:16.266Z,1.77
2018-11-13T11:32:44.968Z,2.10
2018-11-13T11:35:13.518Z,1.87
2018-11-13T11:37:42.845Z,1.90
2018-11-13T11:40:12.681Z,1.77
2018-11-13T11:42:41.159Z,3.30
2018-11-13T11:45:11.297Z,1.90
2018-11-13T11:47:39.789Z,1.73
2018-11-13T11:50:09.176Z,2.10
2018-11-13T11:52:38.014Z,2.00
2018-11-13T11:55:06.720Z,2.23
2018-11-13T11:57:35.295Z,2.20
2018-11-13T12:00:04.700Z,2.80
2018-11-13T12:02:33.212Z,2.60
2018-11-13T12:05:01.718Z,3.03
2018-11-13T12:07:30.208Z,1.80
2018-11-13T12:09:58.588Z,1.47
2018-11-13T12:12:27.035Z,2.47
2018-11-13T12:14:55.579Z,2.43
2018-11-13T12:17:24.536Z,2.30
2018-11-13T12:19:53.035Z,2.70
2018-11-13T12:22:21.481Z,2.53
2018-11-13T12:24:49.867Z,2.07
2018-11-13T12:27:18.258Z,2.07
2018-11-13T12:29:47.028Z,2.50
2018-11-13T12:32:15.833Z,2.93
2018-11-13T12:34:44.636Z,2.67
2018-11-13T12:37:13.403Z,1.87
2018-11-13T12:39:42.093Z,2.80
2018-11-13T12:42:10.727Z,2.87
2018-11-13T12:44:39.241Z,2.03
2018-11-13T12:47:07.652Z,2.73
2018-11-13T12:49:36.120Z,2.20
2018-11-13T12:52:09.909Z,2.90
2018-11-13T12:54:38.994Z,2.00
2018-11-13T12:57:07.386Z,2.47
2018-11-13T12:59:35.816Z,2.10
2018-11-13T13:02:04.940Z,1.83
2018-11-13T13:04:32.955Z,2.23
2018-11-13T13:07:01.332Z,2.40
2018-11-13T13:09:29.769Z,1.97
2018-11-13T13:11:58.748Z,2.13
2018-11-13T13:14:27.569Z,2.93
2018-11-13T13:16:56.046Z,2.60
2018-11-13T13:19:25.160Z,2.60
2018-11-13T13:21:54.163Z,3.10
2018-11-13T13:24:22.550Z,2.30
2018-11-13T13:26:50.997Z,2.30
2018-11-13T13:29:19.644Z,2.90
2018-11-13T13:31:48.109Z,2.20
2018-11-13T13:34:16.741Z,3.70
2018-11-13T13:36:45.198Z,2.97
2018-11-13T13:39:13.606Z,2.57
2018-11-13T13:41:42.232Z,2.90
2018-11-13T13:44:11.361Z,2.77
2018-11-13T13:46:39.970Z,2.67
2018-11-13T13:49:09.024Z,2.57
2018-11-13T13:51:37.467Z,2.30
2018-11-13T13:54:06.083Z,2.20
2018-11-13T13:56:34.376Z,2.43
2018-11-13T13:59:02.988Z,2.50
2018-11-13T14:01:31.859Z,2.60
2018-11-13T14:04:00.272Z,2.40
2018-11-13T14:06:28.689Z,2.03
2018-11-13T14:08:57.340Z,2.60
2018-11-13T14:11:25.911Z,3.60
2018-11-13T14:13:54.365Z,2.23
2018-11-13T14:16:22.709Z,2.97
2018-11-13T14:18:51.106Z,2.50
2018-11-13T14:21:19.509Z,2.20
2018-11-13T14:23:49.287Z,2.70
2018-11-13T14:26:17.889Z,2.07
2018-11-13T14:28:46.288Z,3.53
2018-11-13T14:31:14.638Z,3.33
2018-11-13T14:33:43.071Z,2.13
2018-11-13T14:36:11.611Z,2.90
2018-11-13T14:38:40.002Z,3.10
2018-11-13T14:41:08.457Z,2.53
2018-11-13T14:43:36.871Z,2.37
2018-11-13T14:46:05.657Z,2.80
2018-11-13T14:48:34.025Z,3.17
2018-11-13T14:51:02.425Z,2.17
2018-11-13T14:53:30.872Z,2.73
2018-11-13T14:56:01.979Z,2.73
2018-11-13T14:58:30.473Z,3.13
2018-11-13T15:00:59.935Z,2.50
2018-11-13T15:03:28.376Z,3.23
2018-11-13T15:05:56.841Z,3.47
2018-11-13T15:08:25.240Z,3.03
2018-11-13T15:10:54.616Z,2.63
2018-11-13T15:13:24.321Z,1.93
2018-11-13T15:15:52.823Z,2.20
2018-11-13T15:18:21.290Z,3.03
2018-11-13T15:20:50.585Z,2.07
2018-11-13T15:23:19.020Z,1.90
2018-11-13T15:25:47.444Z,3.10
2018-11-13T15:28:16.011Z,2.40
2018-11-13T15:30:45.845Z,2.67
2018-11-13T15:33:17.885Z,3.03
2018-11-13T15:35:46.282Z,2.73
2018-11-13T15:38:14.856Z,2.50
2018-11-13T15:40:43.234Z,2.13
2018-11-13T15:43:11.627Z,2.70
2018-11-13T15:45:40.238Z,2.17
2018-11-13T15:48:10.437Z,2.73
2018-11-13T15:50:39.337Z,2.67
2018-11-13T15:53:08.570Z,2.13
2018-11-13T15:55:36.933Z,3.67
2018-11-13T15:58:06.215Z,3.07
2018-11-13T16:00:35.879Z,2.77
2018-11-13T16:03:06.738Z,2.97
2018-11-13T16:05:48.203Z,2.63
2018-11-13T16:08:16.652Z,2.30
2018-11-13T16:10:45.306Z,2.63
2018-11-13T16:13:14.956Z,2.73
2018-11-13T16:15:43.825Z,2.67
2018-11-13T16:18:14.822Z,2.57
2018-11-13T16:20:43.251Z,2.57
2018-11-13T16:23:11.638Z,2.57
2018-11-13T16:25:40.232Z,2.47
2018-11-13T16:28:37.210Z,2.50
2018-11-13T16:31:06.623Z,3.17
2018-11-13T16:33:35.893Z,3.70
2018-11-13T16:36:04.369Z,2.73
2018-11-13T16:38:32.818Z,3.47
2018-11-13T16:41:01.288Z,3.63
2018-11-13T16:43:29.668Z,2.57
2018-11-13T16:45:58.037Z,3.73
2018-11-13T16:48:26.417Z,2.30
2018-11-13T16:50:55.541Z,2.73
2018-11-13T16:53:23.940Z,3.23
2018-11-13T16:56:03.780Z,2.90
2018-11-13T16:58:32.232Z,2.60
2018-11-13T17:01:00.640Z,2.37
2018-11-13T17:03:29.460Z,2.20
2018-11-13T17:05:57.895Z,3.40
2018-11-13T17:08:26.246Z,3.47
2018-11-13T17:10:54.616Z,3.40
2018-11-13T17:13:23.045Z,3.77
2018-11-13T17:15:51.458Z,3.27
2018-11-13T17:18:19.861Z,2.63
2018-11-13T17:20:48.216Z,2.57
2018-11-13T17:23:16.913Z,3.40
2018-11-13T17:25:45.312Z,3.30
2018-11-13T17:28:13.693Z,3.13
2018-11-13T17:30:42.063Z,2.83
2018-11-13T17:33:10.742Z,2.60
2018-11-13T17:35:39.174Z,3.00
2018-11-13T17:38:07.668Z,3.07
2018-11-13T17:40:36.834Z,3.40
2018-11-13T17:43:06.482Z,3.47
2018-11-13T17:45:37.174Z,3.83
2018-11-13T17:48:06.822Z,2.33
2018-11-13T17:50:36.438Z,2.97
2018-11-13T17:53:05.806Z,3.47
2018-11-13T17:55:34.446Z,3.73
2018-11-13T17:58:04.897Z,3.23
2018-11-13T18:00:34.684Z,2.50
2018-11-13T18:03:03.643Z,2.67
2018-11-13T18:05:32.408Z,3.20
2018-11-13T18:08:01.651Z,2.37
2018-11-13T18:10:30.926Z,2.77
2018-11-13T18:12:59.637Z,2.63
2018-11-13T18:15:28.890Z,2.90
2018-11-13T18:17:57.595Z,3.63
2018-11-13T18:20:29.628Z,2.77
2018-11-13T18:22:58.026Z,2.60
2018-11-13T18:25:26.561Z,3.10
2018-11-13T18:27:56.084Z,2.63
2018-11-13T18:30:25.606Z,2.53
2018-11-13T18:32:54.690Z,3.60
2018-11-13T18:35:25.316Z,2.87
2018-11-13T18:37:54.832Z,2.70
2018-11-13T18:40:23.765Z,3.03
2018-11-13T18:42:53.054Z,3.47
2018-11-13T18:45:23.962Z,3.03
2018-11-13T18:47:52.302Z,2.97
2018-11-13T18:50:23.932Z,4.20
2018-11-13T18:52:52.338Z,3.67
2018-11-13T18:55:20.745Z,2.77
2018-11-13T18:57:49.214Z,3.27
2018-11-13T19:00:20.907Z,3.37
2018-11-13T19:02:49.793Z,2.87
2018-11-13T19:05:18.403Z,3.03
2018-11-13T19:07:46.802Z,3.27
2018-11-13T19:10:51.774Z,3.50
2018-11-13T19:13:23.782Z,2.83
2018-11-13T19:15:53.897Z,2.83
2018-11-13T19:18:22.685Z,2.90
2018-11-13T19:20:51.301Z,4.27
2018-11-13T19:23:20.656Z,3.20
2018-11-13T19:25:49.316Z,2.90
2018-11-13T19:28:18.066Z,3.00
2018-11-13T19:30:46.602Z,3.70
2018-11-13T19:33:15.035Z,2.93
2018-11-13T19:35:44.907Z,3.80
2018-11-13T19:38:13.186Z,3.67
2018-11-13T19:40:41.593Z,4.17
2018-11-13T19:43:11.005Z,3.43
2018-11-13T19:45:39.821Z,3.50
2018-11-13T19:48:08.509Z,3.80
2018-11-13T19:50:37.500Z,2.87
2018-11-13T19:53:05.986Z,3.50
2018-11-13T19:55:34.872Z,4.33
2018-11-13T19:58:03.267Z,4.17
2018-11-13T20:00:33.963Z,4.30
2018-11-13T20:03:03.703Z,4.53
2018-11-13T20:05:32.584Z,4.23
2018-11-13T20:08:01.257Z,3.47
2018-11-13T20:10:30.904Z,3.30
2018-11-13T20:13:00.697Z,3.90
2018-11-13T20:15:29.693Z,3.90
2018-11-13T20:17:58.751Z,4.07
2018-11-13T20:20:28.440Z,4.03
2018-11-13T20:22:58.491Z,3.77
2018-11-13T20:25:28.269Z,3.63
2018-11-13T20:27:56.889Z,4.27
2018-11-13T20:30:28.620Z,4.40
2018-11-13T20:32:57.998Z,3.97
2018-11-13T20:35:26.425Z,4.93
2018-11-13T20:37:55.736Z,5.43
2018-11-13T20:40:26.457Z,4.23
2018-11-13T20:42:55.998Z,4.33
2018-11-13T20:45:24.555Z,4.03
2018-11-13T20:47:52.975Z,5.20
2018-11-13T20:50:23.647Z,4.73
2018-11-13T20:52:52.113Z,5.10
2018-11-13T20:55:20.481Z,4.07
2018-11-13T20:57:49.166Z,5.00
2018-11-13T21:00:19.430Z,5.37
2018-11-13T21:02:48.523Z,4.93
2018-11-13T21:05:17.051Z,5.40
2018-11-13T21:07:45.726Z,6.07
2018-11-13T21:10:18.091Z,5.33
2018-11-13T21:12:46.821Z,5.23
2018-11-13T21:15:16.836Z,5.97
2018-11-13T21:17:45.266Z,5.13
2018-11-13T21:20:15.055Z,5.30
2018-11-13T21:22:43.442Z,7.27
2018-11-13T21:25:27.039Z,6.33
2018-11-13T21:27:57.529Z,6.53
2018-11-13T21:30:26.060Z,6.00
2018-11-13T21:32:54.696Z,5.23
2018-11-13T21:35:23.165Z,5.60
2018-11-13T21:37:52.850Z,6.07
2018-11-13T21:40:23.371Z,5.27
2018-11-13T21:42:52.423Z,5.80
2018-11-13T21:45:21.753Z,6.10
2018-11-13T21:47:52.962Z,5.40
2018-11-13T21:50:22.771Z,5.47
2018-11-13T21:52:51.096Z,5.03
2018-11-13T21:55:22.424Z,5.80
2018-11-13T21:57:50.784Z,7.57
2018-11-13T22:00:22.162Z,6.30
2018-11-13T22:02:53.350Z,5.43
2018-11-13T22:05:22.622Z,5.90
2018-11-13T22:07:51.241Z,6.80
2018-11-13T22:10:20.350Z,7.07
2018-11-13T22:12:48.996Z,5.83
2018-11-13T22:15:18.977Z,6.33
2018-11-13T22:17:47.380Z,7.00
2018-11-13T22:20:16.817Z,6.10
2018-11-13T22:22:45.373Z,6.57
2018-11-13T22:25:16.329Z,6.13
2018-11-13T22:27:45.828Z,6.37
2018-11-13T22:30:16.520Z,5.70
2018-11-13T22:32:45.944Z,5.83
2018-11-13T22:35:15.641Z,5.97
2018-11-13T22:37:44.160Z,7.77
2018-11-13T22:40:14.995Z,6.27
2018-11-13T22:42:43.385Z,6.30
2018-11-13T22:45:14.071Z,6.83
2018-11-13T22:47:42.622Z,8.50
2018-11-13T22:50:16.871Z,6.80
2018-11-13T22:52:45.755Z,6.60
2018-11-13T22:55:14.864Z,6.90
2018-11-13T22:57:44.341Z,8.53
2018-11-13T23:00:20.978Z,8.03
2018-11-13T23:02:50.769Z,9.45
2018-11-13T23:05:19.638Z,8.57
2018-11-13T23:07:48.116Z,7.23
2018-11-13T23:10:17.096Z,8.37
2018-11-13T23:12:45.818Z,7.60
2018-11-13T23:15:18.438Z,6.60
2018-11-13T23:17:46.978Z,8.57
2018-11-13T23:20:16.755Z,6.30
2018-11-13T23:22:45.264Z,7.50
2018-11-13T23:25:15.024Z,9.08
2018-11-13T23:27:44.351Z,9.90
2018-11-13T23:30:16.164Z,7.20
2018-11-13T23:32:44.893Z,6.83
2018-11-13T23:35:13.820Z,7.00
2018-11-13T23:37:43.274Z,6.33
2018-11-13T23:40:14.341Z,7.13
2018-11-13T23:42:42.870Z,7.17
2018-11-13T23:45:12.057Z,7.00
2018-11-13T23:47:40.807Z,6.77
2018-11-13T23:50:09.762Z,7.13
2018-11-13T23:52:38.390Z,6.60
2018-11-13T23:55:08.193Z,6.60
2018-11-13T23:57:36.580Z,7.67
